This is the latest recevied weather packets stored in our database for station/object N0MR. If no packets are shown the sender has not sent any weather packets the latest 1 day(s).
| Time | Temp. | Humidity | Pressure | Rain* | Wind** | Luminosity | Snow |
|---|---|---|---|---|---|---|---|
| 1778106094 | 4.44° C | 54% | 1013.7 hPa | 0 mm | - | - | - |
| 1778097695 | 3.89° C | 56% | 1014.1 hPa | 0 mm | - | - | - |
| 1778095895 | 3.89° C | 56% | 1014.1 hPa | 0 mm | - | - | - |
| 1778092295 | 3.33° C | 59% | 1014.3 hPa | 0 mm | - | - | - |
| 1778090496 | 2.78° C | 61% | 1014.3 hPa | 0 mm | - | - | - |
| 1778088096 | 2.22° C | 63% | 1014.5 hPa | 0 mm | - | - | - |
| 1778082696 | 2.22° C | 61% | 1014.5 hPa | 0 mm | - | - | - |
| 1778082096 | 2.22° C | 60% | 1014.4 hPa | 0 mm | - | - | - |
| 1778081497 | 2.22° C | 60% | 1014.4 hPa | 0 mm | - | - | - |
| 1778080897 | 1.67° C | 63% | 1014.6 hPa | 0 mm | - | - | - |
| 1778080297 | 1.67° C | 63% | 1014.6 hPa | 0 mm | - | - | - |
| 1778079697 | 1.67° C | 64% | 1014.6 hPa | 0 mm | - | - | - |
| 1778079097 | 1.67° C | 64% | 1014.6 hPa | 0 mm | - | - | - |
| 1778072498 | -0.56° C | 73% | 1014.5 hPa | 0 mm | - | - | - |
| 1778071898 | -0.56° C | 73% | 1014.3 hPa | 0 mm | - | - | - |
| 1778071297 | -0.56° C | 73% | 1014.3 hPa | 0 mm | - | - | - |
| 1778069498 | -1.11° C | 75% | 1013.8 hPa | 0 mm | - | - | - |
| 1778068898 | -1.11° C | 75% | 1013.8 hPa | 0 mm | - | - | - |
| 1778067698 | -1.11° C | 76% | 1013.6 hPa | 0 mm | - | - | - |
| 1778067099 | -1.11° C | 76% | 1013.5 hPa | 0 mm | - | - | - |
| 1778064699 | -1.11° C | 75% | 1013.4 hPa | 0 mm | - | - | - |
| 1778063498 | -1.11° C | 75% | 1013.4 hPa | 0 mm | - | - | - |
| 1778059899 | -1.11° C | 74% | 1013.4 hPa | 0 mm | - | - | - |
| 1778059299 | -1.11° C | 73% | 1013.4 hPa | 0 mm | - | - | - |
| 1778058699 | -1.11° C | 73% | 1013.4 hPa | 0 mm | - | - | - |
* Rain latest hour (hover to see other rain measurements)
** Current wind speed in m/s (hover to see current wind gust speed)